Big Bear Station Historical Data
Daily Summary for April 11, 2017 Units:  English    Metric   Both
« Previous Day
Next Day »
Daily Weekly Monthly Yearly Custom
  High: Low: Average:
Temperature: 62.1 °F 30.7 °F 44.9 °F
Dew Point: 30.4 °F 11.1 °F 23 °F
Humidity: 89 % 14 % 49 %
Wind Speed: 6.8 mph 0.0 mph 2.3 mph
Wind Gust: -999.0 mph - -
Wind:- - WSW
Pressure: 30.16 in 30.11 in -
Precipitation: 0.00 in    
Historical Graphs
 
 
Tabular Data for April 11, 2017
Time Temperature Dew Point Pressure Wind Wind Speed Wind Gust Humidity Rainfall Rate (Hourly)
00:07 33.4 °F 23.3 °F 30.16 in Calm   -999.0 mph 66 % 0 in
00:23 32.9 °F 23.1 °F 30.16 in Calm   -999.0 mph 67 % 0 in
00:38 32.7 °F 24.3 °F 30.16 in South 2.2 mph -999.0 mph 71 % 0 in
00:53 32.2 °F 24.5 °F 30.15 in Calm   -999.0 mph 73 % 0 in
01:08 32.2 °F 25.5 °F 30.15 in South 1.7 mph -999.0 mph 76 % 0 in
01:24 32.0 °F 25.6 °F 30.15 in South 1.7 mph -999.0 mph 77 % 0 in
01:39 31.8 °F 25.4 °F 30.15 in South 1.7 mph -999.0 mph 77 % 0 in
01:54 31.5 °F 25.4 °F 30.15 in South 1.7 mph -999.0 mph 78 % 0 in
02:09 31.3 °F 24.9 °F 30.14 in South 1.7 mph -999.0 mph 77 % 0 in
02:24 31.1 °F 23.8 °F 30.13 in South 1.7 mph -999.0 mph 74 % 0 in
02:40 30.9 °F 23.9 °F 30.13 in South 1.7 mph -999.0 mph 75 % 0 in
02:55 30.9 °F 23.6 °F 30.13 in South 1.1 mph -999.0 mph 74 % 0 in
03:10 30.9 °F 24.5 °F 30.13 in South 1.7 mph -999.0 mph 77 % 0 in
03:25 31.1 °F 24.4 °F 30.13 in South 2.2 mph -999.0 mph 76 % 0 in
03:41 31.3 °F 24.6 °F 30.13 in South 1.1 mph -999.0 mph 76 % 0 in
03:56 30.7 °F 25.3 °F 30.13 in Calm   -999.0 mph 80 % 0 in
04:11 31.1 °F 26.0 °F 30.13 in Calm   -999.0 mph 81 % 0 in
04:26 31.3 °F 26.1 °F 30.12 in SSE 1.1 mph -999.0 mph 81 % 0 in
04:41 31.3 °F 26.1 °F 30.12 in South 1.7 mph -999.0 mph 81 % 0 in
04:57 30.9 °F 25.5 °F 30.11 in Calm   -999.0 mph 80 % 0 in
05:12 30.9 °F 25.2 °F 30.11 in SSE 1.1 mph -999.0 mph 79 % 0 in
05:27 31.5 °F 27.5 °F 30.11 in South 1.7 mph -999.0 mph 85 % 0 in
05:42 31.3 °F 27.6 °F 30.11 in South 1.7 mph -999.0 mph 86 % 0 in
05:58 31.3 °F 27.0 °F 30.11 in SSE 1.7 mph -999.0 mph 84 % 0 in
06:13 30.9 °F 26.9 °F 30.11 in SSE 1.7 mph -999.0 mph 85 % 0 in
06:28 31.5 °F 28.1 °F 30.11 in South 2.7 mph -999.0 mph 87 % 0 in
06:43 31.3 °F 27.9 °F 30.12 in Calm   -999.0 mph 87 % 0 in
06:59 31.3 °F 27.9 °F 30.12 in Calm   -999.0 mph 87 % 0 in
07:14 31.8 °F 28.7 °F 30.12 in Calm   -999.0 mph 88 % 0 in
07:29 32.0 °F 29.1 °F 30.12 in South 1.1 mph -999.0 mph 89 % 0 in
07:44 32.7 °F 29.5 °F 30.12 in Calm   -999.0 mph 88 % 0 in
07:59 33.3 °F 30.4 °F 30.12 in Calm   -999.0 mph 89 % 0 in
08:15 37.2 °F 27.6 °F 30.12 in Calm   -999.0 mph 68 % 0 in
08:30 41.9 °F 23.6 °F 30.12 in South 2.2 mph -999.0 mph 48 % 0 in
08:45 45.3 °F 24.1 °F 30.12 in WNW 2.7 mph -999.0 mph 43 % 0 in
09:00 46.4 °F 27.3 °F 30.12 in NNE 4.2 mph -999.0 mph 47 % 0 in
09:15 47.1 °F 23.4 °F 30.12 in SW 3.2 mph -999.0 mph 39 % 0 in
09:31 47.8 °F 23.4 °F 30.13 in WSW 3.2 mph -999.0 mph 38 % 0 in
09:46 48.6 °F 23.5 °F 30.13 in NW 3.2 mph -999.0 mph 37 % 0 in
10:01 49.6 °F 23.0 °F 30.13 in West 3.7 mph -999.0 mph 35 % 0 in
10:16 51.1 °F 21.5 °F 30.13 in WNW 5.3 mph -999.0 mph 31 % 0 in
10:31 52.5 °F 19.5 °F 30.13 in WNW 4.7 mph -999.0 mph 27 % 0 in
10:47 54.9 °F 20.6 °F 30.13 in NNW 4.7 mph -999.0 mph 26 % 0 in
11:02 56.3 °F 20.9 °F 30.13 in NE 3.7 mph -999.0 mph 25 % 0 in
11:17 56.7 °F 19.3 °F 30.13 in NW 5.8 mph -999.0 mph 23 % 0 in
11:33 57.4 °F 18.8 °F 30.13 in NW 5.3 mph -999.0 mph 22 % 0 in
11:48 58.5 °F 16.3 °F 30.13 in NNW 4.7 mph -999.0 mph 19 % 0 in
12:03 59.9 °F 18.7 °F 30.13 in WNW 2.7 mph -999.0 mph 20 % 0 in
12:19 58.5 °F 23.7 °F 30.13 in NNW 3.2 mph -999.0 mph 26 % 0 in
12:34 60.8 °F 18.2 °F 30.13 in NW 5.3 mph -999.0 mph 19 % 0 in
12:49 60.6 °F 24.6 °F 30.13 in NW 5.8 mph -999.0 mph 25 % 0 in
13:05 60.4 °F 23.4 °F 30.13 in NW 3.7 mph -999.0 mph 24 % 0 in
13:20 61.7 °F 22.4 °F 30.13 in NNW 4.2 mph -999.0 mph 22 % 0 in
13:35 62.1 °F 19.3 °F 30.13 in NW 4.7 mph -999.0 mph 19 % 0 in
13:50 62.1 °F 19.3 °F 30.13 in North 4.2 mph -999.0 mph 19 % 0 in
14:06 60.8 °F 19.4 °F 30.13 in NNW 6.8 mph -999.0 mph 20 % 0 in
14:21 60.6 °F 18.1 °F 30.13 in North 4.2 mph -999.0 mph 19 % 0 in
14:37 60.6 °F 11.1 °F 30.12 in North 2.7 mph -999.0 mph 14 % 0 in
14:52 61.3 °F 11.7 °F 30.12 in NNW 2.2 mph -999.0 mph 14 % 0 in
15:07 60.6 °F 14.1 °F 30.12 in NW 4.2 mph -999.0 mph 16 % 0 in
15:23 60.3 °F 15.3 °F 30.12 in WNW 4.2 mph -999.0 mph 17 % 0 in
15:38 59.0 °F 19.1 °F 30.12 in NNE 4.2 mph -999.0 mph 21 % 0 in
15:53 56.8 °F 18.3 °F 30.12 in NNW 3.2 mph -999.0 mph 22 % 0 in
16:08 58.6 °F 19.8 °F 30.12 in North 4.7 mph -999.0 mph 22 % 0 in
16:23 59.2 °F 23.4 °F 30.11 in NW 2.7 mph -999.0 mph 25 % 0 in
16:39 59.4 °F 22.6 °F 30.11 in NNW 6.8 mph -999.0 mph 24 % 0 in
16:54 60.8 °F 25.7 °F 30.11 in NW 4.7 mph -999.0 mph 26 % 0 in
17:09 61.5 °F 25.3 °F 30.11 in NW 2.7 mph -999.0 mph 25 % 0 in
17:24 60.4 °F 24.4 °F 30.12 in WNW 2.7 mph -999.0 mph 25 % 0 in
17:39 58.6 °F 22.9 °F 30.12 in NNW 3.7 mph -999.0 mph 25 % 0 in
17:55 60.1 °F 24.1 °F 30.12 in West 2.7 mph -999.0 mph 25 % 0 in
18:10 59.9 °F 24.0 °F 30.12 in NW 2.7 mph -999.0 mph 25 % 0 in
18:25 57.2 °F 25.2 °F 30.13 in North 1.7 mph -999.0 mph 29 % 0 in
18:40 52.5 °F 22.7 °F 30.13 in West 3.2 mph -999.0 mph 31 % 0 in
18:56 50.0 °F 23.4 °F 30.13 in WNW 2.2 mph -999.0 mph 35 % 0 in
19:11 48.6 °F 23.5 °F 30.13 in Calm   -999.0 mph 37 % 0 in
19:26 47.1 °F 22.1 °F 30.13 in Calm   -999.0 mph 37 % 0 in
19:41 45.5 °F 23.7 °F 30.13 in Calm   -999.0 mph 42 % 0 in
19:56 44.1 °F 24.6 °F 30.14 in SSE 1.7 mph -999.0 mph 46 % 0 in
20:12 43.3 °F 23.4 °F 30.14 in Calm   -999.0 mph 45 % 0 in
20:27 42.4 °F 24.1 °F 30.14 in Calm   -999.0 mph 48 % 0 in
20:42 41.5 °F 23.3 °F 30.14 in South 1.7 mph -999.0 mph 48 % 0 in
20:57 41.0 °F 22.3 °F 30.15 in SSW 2.2 mph -999.0 mph 47 % 0 in
21:13 40.5 °F 21.3 °F 30.15 in Calm   -999.0 mph 46 % 0 in
21:28 40.1 °F 21.5 °F 30.15 in Calm   -999.0 mph 47 % 0 in
21:43 39.6 °F 21.5 °F 30.15 in Calm   -999.0 mph 48 % 0 in
21:58 39.6 °F 21.5 °F 30.15 in South 2.2 mph -999.0 mph 48 % 0 in
22:14 40.6 °F 18.7 °F 30.16 in Calm   -999.0 mph 41 % 0 in
22:29 40.3 °F 18.4 °F 30.16 in Calm   -999.0 mph 41 % 0 in
22:44 40.1 °F 19.9 °F 30.16 in Calm   -999.0 mph 44 % 0 in
22:59 39.2 °F 20.1 °F 30.16 in Calm   -999.0 mph 46 % 0 in
23:14 39.0 °F 22.9 °F 30.16 in South 2.2 mph -999.0 mph 52 % 0 in
23:30 38.3 °F 23.1 °F 30.16 in South 2.2 mph -999.0 mph 54 % 0 in
23:45 38.5 °F 24.2 °F 30.16 in South 2.7 mph -999.0 mph 56 % 0 in
Big Bear CA Weather
Compliments of Weather Underground - 1.5 mb